sensor_id;sensor_type;location;lat;lon;timestamp;pressure;altitude;pressure_sealevel;temperature;humidity
9525;BME280;15940;48.734;9.112;2023-04-01T00:01:05;95229.50;;;6.97;85.38
9525;BME280;15940;48.734;9.112;2023-04-01T00:03:33;95222.44;;;6.94;84.82
9525;BME280;15940;48.734;9.112;2023-04-01T00:06:01;95232.44;;;6.99;85.11
9525;BME280;15940;48.734;9.112;2023-04-01T00:08:29;95240.00;;;7.00;85.15
9525;BME280;15940;48.734;9.112;2023-04-01T00:10:56;95242.97;;;7.02;84.53
9525;BME280;15940;48.734;9.112;2023-04-01T00:13:24;95240.00;;;7.00;85.51
9525;BME280;15940;48.734;9.112;2023-04-01T00:15:52;95239.03;;;7.03;85.25
9525;BME280;15940;48.734;9.112;2023-04-01T00:18:19;95231.19;;;7.05;84.77
9525;BME280;15940;48.734;9.112;2023-04-01T00:20:49;95238.03;;;7.06;84.36
9525;BME280;15940;48.734;9.112;2023-04-01T00:23:17;95235.13;;;7.04;84.64
9525;BME280;15940;48.734;9.112;2023-04-01T00:25:46;95243.19;;;7.04;84.19
9525;BME280;15940;48.734;9.112;2023-04-01T00:28:13;95234.63;;;7.06;84.89
9525;BME280;15940;48.734;9.112;2023-04-01T00:30:40;95236.09;;;7.07;84.24
9525;BME280;15940;48.734;9.112;2023-04-01T00:33:07;95242.22;;;7.02;84.91
9525;BME280;15940;48.734;9.112;2023-04-01T00:35:34;95235.84;;;6.99;84.08
9525;BME280;15940;48.734;9.112;2023-04-01T00:38:01;95242.69;;;7.00;84.84
9525;BME280;15940;48.734;9.112;2023-04-01T00:40:32;95235.13;;;6.99;84.71
9525;BME280;15940;48.734;9.112;2023-04-01T00:43:00;95241.22;;;7.05;84.65
9525;BME280;15940;48.734;9.112;2023-04-01T00:45:33;95249.06;;;7.03;84.98
9525;BME280;15940;48.734;9.112;2023-04-01T00:48:05;95252.50;;;7.03;85.49
9525;BME280;15940;48.734;9.112;2023-04-01T00:50:34;95259.84;;;7.03;86.06
9525;BME280;15940;48.734;9.112;2023-04-01T00:53:02;95251.78;;;7.03;86.39
9525;BME280;15940;48.734;9.112;2023-04-01T00:55:33;95258.84;;;7.06;86.29
9525;BME280;15940;48.734;9.112;2023-04-01T00:58:06;95254.44;;;7.08;86.59
9525;BME280;15940;48.734;9.112;2023-04-01T01:00:34;95261.03;;;7.07;86.50
9525;BME280;15940;48.734;9.112;2023-04-01T01:03:02;95259.56;;;7.06;86.79
9525;BME280;15940;48.734;9.112;2023-04-01T01:05:38;95258.13;;;7.05;87.51
9525;BME280;15940;48.734;9.112;2023-04-01T01:08:17;95254.22;;;6.95;86.89
9525;BME280;15940;48.734;9.112;2023-04-01T01:10:50;95259.13;;;6.91;87.71
9525;BME280;15940;48.734;9.112;2023-04-01T01:13:24;95259.63;;;6.90;87.69
9525;BME280;15940;48.734;9.112;2023-04-01T01:15:58;95241.78;;;6.92;88.32
9525;BME280;15940;48.734;9.112;2023-04-01T01:18:34;95249.09;;;6.97;88.54
9525;BME280;15940;48.734;9.112;2023-04-01T01:21:32;95255.69;;;6.91;88.66
9525;BME280;15940;48.734;9.112;2023-04-01T01:24:39;95264.50;;;6.91;87.90
9525;BME280;15940;48.734;9.112;2023-04-01T01:27:08;95252.53;;;6.86;88.19
9525;BME280;15940;48.734;9.112;2023-04-01T01:30:04;95252.03;;;6.88;88.68
9525;BME280;15940;48.734;9.112;2023-04-01T01:33:11;95249.09;;;6.92;87.91
9525;BME280;15940;48.734;9.112;2023-04-01T01:35:46;95261.81;;;6.91;88.24
9525;BME280;15940;48.734;9.112;2023-04-01T01:38:17;95263.53;;;6.88;88.10
9525;BME280;15940;48.734;9.112;2023-04-01T01:40:48;95262.06;;;6.87;88.51
9525;BME280;15940;48.734;9.112;2023-04-01T01:43:22;95261.56;;;6.89;87.67
9525;BME280;15940;48.734;9.112;2023-04-01T01:45:53;95253.75;;;6.91;88.18
9525;BME280;15940;48.734;9.112;2023-04-01T01:48:21;95256.19;;;6.89;87.44
9525;BME280;15940;48.734;9.112;2023-04-01T01:50:50;95259.84;;;6.92;87.57
9525;BME280;15940;48.734;9.112;2023-04-01T01:53:17;95261.34;;;6.93;88.23
9525;BME280;15940;48.734;9.112;2023-04-01T01:55:46;95257.91;;;6.92;88.26
9525;BME280;15940;48.734;9.112;2023-04-01T01:58:17;95261.81;;;6.91;87.71
9525;BME280;15940;48.734;9.112;2023-04-01T02:00:50;95259.63;;;6.90;87.74
9525;BME280;15940;48.734;9.112;2023-04-01T02:03:18;95250.34;;;6.79;87.23
9525;BME280;15940;48.734;9.112;2023-04-01T02:05:49;95247.88;;;6.81;88.53
9525;BME280;15940;48.734;9.112;2023-04-01T02:08:21;95250.59;;;6.81;87.87
9525;BME280;15940;48.734;9.112;2023-04-01T02:10:55;95254.00;;;6.82;88.03
9525;BME280;15940;48.734;9.112;2023-04-01T02:13:29;95252.06;;;6.82;87.71
9525;BME280;15940;48.734;9.112;2023-04-01T02:16:03;95254.25;;;6.78;88.04
9525;BME280;15940;48.734;9.112;2023-04-01T02:18:34;95251.06;;;6.80;88.68
9525;BME280;15940;48.734;9.112;2023-04-01T02:21:05;95242.78;;;6.72;87.74
9525;BME280;15940;48.734;9.112;2023-04-01T02:23:34;95254.28;;;6.73;88.11
9525;BME280;15940;48.734;9.112;2023-04-01T02:26:03;95263.31;;;6.70;88.33
9525;BME280;15940;48.734;9.112;2023-04-01T02:28:33;95260.63;;;6.70;88.14
9525;BME280;15940;48.734;9.112;2023-04-01T02:31:01;95253.78;;;6.69;87.49
9525;BME280;15940;48.734;9.112;2023-04-01T02:33:29;95253.28;;;6.70;88.51
9525;BME280;15940;48.734;9.112;2023-04-01T02:35:58;95256.47;;;6.63;87.53
9525;BME280;15940;48.734;9.112;2023-04-01T02:38:27;95258.19;;;6.61;86.98
9525;BME280;15940;48.734;9.112;2023-04-01T02:40:59;95260.41;;;6.62;87.24
9525;BME280;15940;48.734;9.112;2023-04-01T02:43:26;95257.72;;;6.62;87.33
9525;BME280;15940;48.734;9.112;2023-04-01T02:45:54;95262.63;;;6.58;87.45
9525;BME280;15940;48.734;9.112;2023-04-01T02:48:21;95257.00;;;6.56;87.22
9525;BME280;15940;48.734;9.112;2023-04-01T02:50:48;95250.38;;;6.57;86.76
9525;BME280;15940;48.734;9.112;2023-04-01T02:53:15;95253.31;;;6.59;86.50
9525;BME280;15940;48.734;9.112;2023-04-01T02:55:44;95253.56;;;6.55;86.37
9525;BME280;15940;48.734;9.112;2023-04-01T02:58:11;95251.63;;;6.50;86.74
9525;BME280;15940;48.734;9.112;2023-04-01T03:00:38;95253.09;;;6.57;87.11
9525;BME280;15940;48.734;9.112;2023-04-01T03:03:05;95250.38;;;6.51;86.56
9525;BME280;15940;48.734;9.112;2023-04-01T03:05:32;95252.13;;;6.54;86.98
9525;BME280;15940;48.734;9.112;2023-04-01T03:07:59;95247.94;;;6.53;86.67
9525;BME280;15940;48.734;9.112;2023-04-01T03:10:26;95253.56;;;6.50;86.35
9525;BME280;15940;48.734;9.112;2023-04-01T03:12:54;95261.38;;;6.53;88.00
9525;BME280;15940;48.734;9.112;2023-04-01T03:15:21;95255.53;;;6.55;86.88
9525;BME280;15940;48.734;9.112;2023-04-01T03:17:48;95257.97;;;6.58;87.38
9525;BME280;15940;48.734;9.112;2023-04-01T03:20:15;95249.66;;;6.56;86.59
9525;BME280;15940;48.734;9.112;2023-04-01T03:22:42;95250.88;;;6.50;85.99
9525;BME280;15940;48.734;9.112;2023-04-01T03:25:10;95253.34;;;6.48;87.08
9525;BME280;15940;48.734;9.112;2023-04-01T03:27:37;95247.00;;;6.45;86.61
9525;BME280;15940;48.734;9.112;2023-04-01T03:30:07;95270.47;;;6.45;86.22
9525;BME280;15940;48.734;9.112;2023-04-01T03:32:35;95261.63;;;6.44;85.34
9525;BME280;15940;48.734;9.112;2023-04-01T03:35:02;95254.31;;;6.45;85.51
9525;BME280;15940;48.734;9.112;2023-04-01T03:37:30;95254.31;;;6.45;84.92
9525;BME280;15940;48.734;9.112;2023-04-01T03:39:57;95252.34;;;6.51;85.06
9525;BME280;15940;48.734;9.112;2023-04-01T03:42:24;95248.44;;;6.52;84.18
9525;BME280;15940;48.734;9.112;2023-04-01T03:44:51;95250.88;;;6.50;84.13
9525;BME280;15940;48.734;9.112;2023-04-01T03:47:19;95244.53;;;6.47;83.85
9525;BME280;15940;48.734;9.112;2023-04-01T03:49:46;95254.53;;;6.52;85.92
9525;BME280;15940;48.734;9.112;2023-04-01T03:52:13;95255.03;;;6.51;83.86
9525;BME280;15940;48.734;9.112;2023-04-01T03:54:40;95243.56;;;6.45;83.69
9525;BME280;15940;48.734;9.112;2023-04-01T03:57:07;95233.03;;;6.41;84.52
9525;BME280;15940;48.734;9.112;2023-04-01T03:59:34;95238.69;;;6.38;84.21
9525;BME280;15940;48.734;9.112;2023-04-01T04:02:01;95238.44;;;6.30;84.15
9525;BME280;15940;48.734;9.112;2023-04-01T04:04:30;95229.63;;;6.24;84.26
9525;BME280;15940;48.734;9.112;2023-04-01T04:06:58;95233.03;;;6.24;84.68
9525;BME280;15940;48.734;9.112;2023-04-01T04:09:25;95223.53;;;6.18;84.87
9525;BME280;15940;48.734;9.112;2023-04-01T04:11:51;95235.00;;;6.13;84.84
9525;BME280;15940;48.734;9.112;2023-04-01T04:14:18;95239.88;;;6.14;84.77
9525;BME280;15940;48.734;9.112;2023-04-01T04:16:45;95225.72;;;6.14;84.83
9525;BME280;15940;48.734;9.112;2023-04-01T04:19:12;95242.34;;;6.23;84.80
9525;BME280;15940;48.734;9.112;2023-04-01T04:21:41;95233.78;;;6.19;84.78
9525;BME280;15940;48.734;9.112;2023-04-01T04:24:09;95233.78;;;6.19;85.12
9525;BME280;15940;48.734;9.112;2023-04-01T04:26:36;95235.25;;;6.15;85.85
9525;BME280;15940;48.734;9.112;2023-04-01T04:29:03;95231.34;;;6.10;84.47
9525;BME280;15940;48.734;9.112;2023-04-01T04:31:30;95230.09;;;6.06;84.55
9525;BME280;15940;48.734;9.112;2023-04-01T04:33:59;95224.25;;;6.01;84.97
9525;BME280;15940;48.734;9.112;2023-04-01T04:36:26;95231.56;;;5.95;85.38
9525;BME280;15940;48.734;9.112;2023-04-01T04:38:55;95230.09;;;5.94;86.10
9525;BME280;15940;48.734;9.112;2023-04-01T04:41:23;95229.63;;;5.90;86.26
9525;BME280;15940;48.734;9.112;2023-04-01T04:43:53;95232.78;;;5.89;86.73
9525;BME280;15940;48.734;9.112;2023-04-01T04:46:21;95225.97;;;5.93;86.92
9525;BME280;15940;48.734;9.112;2023-04-01T04:48:48;95233.28;;;5.93;86.59
9525;BME280;15940;48.734;9.112;2023-04-01T04:51:15;95222.03;;;5.89;86.32
9525;BME280;15940;48.734;9.112;2023-04-01T04:53:43;95228.88;;;5.95;87.65
9525;BME280;15940;48.734;9.112;2023-04-01T04:56:12;95232.56;;;5.92;86.81
9525;BME280;15940;48.734;9.112;2023-04-01T04:58:39;95222.28;;;5.91;86.37
9525;BME280;15940;48.734;9.112;2023-04-01T05:01:08;95227.19;;;5.92;86.72
9525;BME280;15940;48.734;9.112;2023-04-01T05:03:36;95223.75;;;5.92;86.91
9525;BME280;15940;48.734;9.112;2023-04-01T05:06:05;95225.25;;;5.98;87.41
9525;BME280;15940;48.734;9.112;2023-04-01T05:08:32;95223.28;;;6.05;86.93
9525;BME280;15940;48.734;9.112;2023-04-01T05:10:59;95222.06;;;6.11;86.49
9525;BME280;15940;48.734;9.112;2023-04-01T05:13:28;95211.53;;;6.13;86.23
9525;BME280;15940;48.734;9.112;2023-04-01T05:15:55;95216.69;;;6.22;86.76
9525;BME280;15940;48.734;9.112;2023-04-01T05:18:22;95209.34;;;6.23;86.21
9525;BME280;15940;48.734;9.112;2023-04-01T05:20:50;95208.59;;;6.22;85.40
9525;BME280;15940;48.734;9.112;2023-04-01T05:23:18;95208.84;;;6.24;85.88
9525;BME280;15940;48.734;9.112;2023-04-01T05:25:46;95207.88;;;6.39;86.82
9525;BME280;15940;48.734;9.112;2023-04-01T05:28:14;95198.09;;;6.36;85.20
9525;BME280;15940;48.734;9.112;2023-04-01T05:30:43;95200.03;;;6.41;84.80
9525;BME280;15940;48.734;9.112;2023-04-01T05:33:12;95204.44;;;6.49;85.35
9525;BME280;15940;48.734;9.112;2023-04-01T05:35:39;95203.69;;;6.54;84.43
9525;BME280;15940;48.734;9.112;2023-04-01T05:38:07;95201.72;;;6.66;83.33
9525;BME280;15940;48.734;9.112;2023-04-01T05:40:34;95205.88;;;6.73;83.69
9525;BME280;15940;48.734;9.112;2023-04-01T05:43:01;95189.94;;;6.75;82.49
9525;BME280;15940;48.734;9.112;2023-04-01T05:45:28;95195.56;;;6.77;83.09
9525;BME280;15940;48.734;9.112;2023-04-01T05:47:56;95195.78;;;6.84;83.38
9525;BME280;15940;48.734;9.112;2023-04-01T05:50:23;95185.25;;;6.81;81.84
9525;BME280;15940;48.734;9.112;2023-04-01T05:52:50;95190.19;;;6.82;82.32
9525;BME280;15940;48.734;9.112;2023-04-01T05:55:17;95191.38;;;6.93;82.54
9525;BME280;15940;48.734;9.112;2023-04-01T05:57:45;95191.81;;;6.97;82.39
9525;BME280;15940;48.734;9.112;2023-04-01T06:00:15;95203.78;;;7.07;82.31
9525;BME280;15940;48.734;9.112;2023-04-01T06:02:42;95187.84;;;7.14;81.15
9525;BME280;15940;48.734;9.112;2023-04-01T06:05:18;95183.19;;;7.15;79.97
9525;BME280;15940;48.734;9.112;2023-04-01T06:07:46;95184.34;;;7.25;80.06
9525;BME280;15940;48.734;9.112;2023-04-01T06:10:15;95158.66;;;7.30;78.60
9525;BME280;15940;48.734;9.112;2023-04-01T06:12:58;95160.06;;;7.36;78.38
9525;BME280;15940;48.734;9.112;2023-04-01T06:15:37;95163.47;;;7.42;78.81
9525;BME280;15940;48.734;9.112;2023-04-01T06:18:46;95165.81;;;7.57;78.45
9525;BME280;15940;48.734;9.112;2023-04-01T06:21:37;95168.50;;;7.57;77.24
9525;BME280;15940;48.734;9.112;2023-04-01T06:24:28;95169.47;;;7.60;76.93
9525;BME280;15940;48.734;9.112;2023-04-01T06:27:06;95162.34;;;7.62;77.16
9525;BME280;15940;48.734;9.112;2023-04-01T06:29:56;95168.47;;;7.63;77.19
9525;BME280;15940;48.734;9.112;2023-04-01T06:32:58;95168.97;;;7.61;77.64
9525;BME280;15940;48.734;9.112;2023-04-01T06:35:38;95168.97;;;7.61;78.79
9525;BME280;15940;48.734;9.112;2023-04-01T06:42:14;95184.66;;;7.63;77.92
9525;BME280;15940;48.734;9.112;2023-04-01T06:44:53;95178.03;;;7.64;78.38
9525;BME280;15940;48.734;9.112;2023-04-01T06:47:40;95175.03;;;7.73;78.95
9525;BME280;15940;48.734;9.112;2023-04-01T06:50:21;95171.88;;;7.69;78.38
9525;BME280;15940;48.734;9.112;2023-04-01T06:52:58;95173.53;;;7.78;78.67
9525;BME280;15940;48.734;9.112;2023-04-01T06:55:35;95165.91;;;7.82;78.49
9525;BME280;15940;48.734;9.112;2023-04-01T06:58:13;95168.38;;;7.80;79.03
9525;BME280;15940;48.734;9.112;2023-04-01T07:00:45;95174.69;;;7.88;78.11
9525;BME280;15940;48.734;9.112;2023-04-01T07:03:20;95177.31;;;7.93;78.14
9525;BME280;15940;48.734;9.112;2023-04-01T07:05:49;95184.41;;;7.96;77.94
9525;BME280;15940;48.734;9.112;2023-04-01T07:08:20;95180.50;;;7.97;77.67
9525;BME280;15940;48.734;9.112;2023-04-01T07:10:51;95175.59;;;7.96;77.48
9525;BME280;15940;48.734;9.112;2023-04-01T07:13:25;95186.13;;;7.94;77.24
9525;BME280;15940;48.734;9.112;2023-04-01T07:16:06;95186.38;;;7.96;78.06
9525;BME280;15940;48.734;9.112;2023-04-01T07:18:40;95186.59;;;7.98;78.68
9525;BME280;15940;48.734;9.112;2023-04-01T07:21:20;95179.50;;;7.95;78.39
9525;BME280;15940;48.734;9.112;2023-04-01T07:23:49;95185.09;;;8.02;78.59
9525;BME280;15940;48.734;9.112;2023-04-01T07:26:21;95186.81;;;8.06;78.56
9525;BME280;15940;48.734;9.112;2023-04-01T07:28:51;95182.44;;;7.97;77.90
9525;BME280;15940;48.734;9.112;2023-04-01T07:31:39;95187.84;;;7.97;78.70
9525;BME280;15940;48.734;9.112;2023-04-01T07:34:20;95191.94;;;8.03;78.47
9525;BME280;15940;48.734;9.112;2023-04-01T07:36:58;95198.56;;;8.02;78.84
9525;BME280;15940;48.734;9.112;2023-04-01T07:39:36;95198.78;;;8.05;78.35
9525;BME280;15940;48.734;9.112;2023-04-01T07:42:15;95199.63;;;7.94;77.37
9525;BME280;15940;48.734;9.112;2023-04-01T07:44:56;95201.28;;;8.02;78.13
9525;BME280;15940;48.734;9.112;2023-04-01T07:47:39;95202.16;;;8.16;78.99
9525;BME280;15940;48.734;9.112;2023-04-01T07:50:18;95202.81;;;8.22;77.92
9525;BME280;15940;48.734;9.112;2023-04-01T07:52:59;95201.16;;;8.19;77.14
9525;BME280;15940;48.734;9.112;2023-04-01T07:55:35;95204.47;;;8.31;78.56
9525;BME280;15940;48.734;9.112;2023-04-01T07:58:14;95212.97;;;8.46;76.99
9525;BME280;15940;48.734;9.112;2023-04-01T08:00:51;95207.56;;;8.46;76.99
9525;BME280;15940;48.734;9.112;2023-04-01T08:03:38;95206.44;;;8.61;78.05
9525;BME280;15940;48.734;9.112;2023-04-01T08:06:16;95204.63;;;8.69;76.81
9525;BME280;15940;48.734;9.112;2023-04-01T08:08:57;95209.25;;;8.49;76.87
9525;BME280;15940;48.734;9.112;2023-04-01T08:11:40;95210.84;;;8.64;77.39
9525;BME280;15940;48.734;9.112;2023-04-01T08:14:15;95206.59;;;8.68;78.22
9525;BME280;15940;48.734;9.112;2023-04-01T08:16:50;95207.84;;;8.67;77.29
9525;BME280;15940;48.734;9.112;2023-04-01T08:19:30;95209.25;;;8.74;78.10
9525;BME280;15940;48.734;9.112;2023-04-01T08:22:07;95208.34;;;8.66;77.94
9525;BME280;15940;48.734;9.112;2023-04-01T08:24:41;95221.56;;;8.69;77.29
9525;BME280;15940;48.734;9.112;2023-04-01T08:27:16;95219.25;;;8.54;77.89
9525;BME280;15940;48.734;9.112;2023-04-01T08:29:49;95218.97;;;8.58;78.62
9525;BME280;15940;48.734;9.112;2023-04-01T08:32:25;95214.81;;;8.57;78.45
9525;BME280;15940;48.734;9.112;2023-04-01T08:35:07;95228.47;;;8.40;79.32
9525;BME280;15940;48.734;9.112;2023-04-01T08:37:38;95233.84;;;8.40;79.83
9525;BME280;15940;48.734;9.112;2023-04-01T08:43:48;95220.38;;;8.05;81.89
9525;BME280;15940;48.734;9.112;2023-04-01T08:47:03;95230.25;;;7.96;82.15
9525;BME280;15940;48.734;9.112;2023-04-01T08:50:05;95227.88;;;7.82;83.59
9525;BME280;15940;48.734;9.112;2023-04-01T08:52:37;95233.84;;;7.69;83.73
9525;BME280;15940;48.734;9.112;2023-04-01T08:55:31;95228.72;;;7.65;84.26
9525;BME280;15940;48.734;9.112;2023-04-01T09:01:25;95224.13;;;7.55;83.78
9525;BME280;15940;48.734;9.112;2023-04-01T09:04:14;95213.75;;;7.70;84.64
9525;BME280;15940;48.734;9.112;2023-04-01T09:07:09;95223.69;;;7.86;83.64
9525;BME280;15940;48.734;9.112;2023-04-01T09:10:21;95214.09;;;7.91;82.87
9525;BME280;15940;48.734;9.112;2023-04-01T09:13:04;95222.91;;;8.27;83.40
9525;BME280;15940;48.734;9.112;2023-04-01T09:15:50;95220.75;;;8.50;81.83
9525;BME280;15940;48.734;9.112;2023-04-01T09:18:36;95221.13;;;8.65;82.35
9525;BME280;15940;48.734;9.112;2023-04-01T09:21:24;95223.06;;;8.89;79.65
9525;BME280;15940;48.734;9.112;2023-04-01T09:24:26;95223.19;;;9.02;78.60
9525;BME280;15940;48.734;9.112;2023-04-01T09:27:05;95226.19;;;9.18;79.47
9525;BME280;15940;48.734;9.112;2023-04-01T09:36:04;95241.25;;;9.13;77.09
9525;BME280;15940;48.734;9.112;2023-04-01T09:38:46;95236.34;;;8.87;77.63
9525;BME280;15940;48.734;9.112;2023-04-01T09:41:29;95240.03;;;8.65;77.87
9525;BME280;15940;48.734;9.112;2023-04-01T09:44:02;95245.59;;;8.73;79.10
9525;BME280;15940;48.734;9.112;2023-04-01T09:46:50;95250.00;;;8.70;77.61
9525;BME280;15940;48.734;9.112;2023-04-01T09:49:48;95242.03;;;8.59;77.41
9525;BME280;15940;48.734;9.112;2023-04-01T09:52:31;95250.53;;;8.69;79.38
9525;BME280;15940;48.734;9.112;2023-04-01T09:59:25;95253.66;;;8.48;78.19
9525;BME280;15940;48.734;9.112;2023-04-01T10:02:25;95248.88;;;8.60;78.48
9525;BME280;15940;48.734;9.112;2023-04-01T10:05:33;95254.03;;;8.64;78.63
9525;BME280;15940;48.734;9.112;2023-04-01T10:08:33;95258.44;;;8.61;78.48
9525;BME280;15940;48.734;9.112;2023-04-01T10:11:22;95252.59;;;8.57;77.20
9525;BME280;15940;48.734;9.112;2023-04-01T10:14:50;95257.13;;;8.73;76.94
9525;BME280;15940;48.734;9.112;2023-04-01T10:20:53;95261.34;;;8.93;76.47
9525;BME280;15940;48.734;9.112;2023-04-01T10:27:15;95260.41;;;9.09;75.08
9525;BME280;15940;48.734;9.112;2023-04-01T10:30:28;95265.16;;;9.47;75.77
9525;BME280;15940;48.734;9.112;2023-04-01T10:36:59;95272.41;;;9.95;72.86
9525;BME280;15940;48.734;9.112;2023-04-01T10:46:53;95273.63;;;10.32;69.71
9525;BME280;15940;48.734;9.112;2023-04-01T10:50:13;95264.03;;;10.12;70.26
9525;BME280;15940;48.734;9.112;2023-04-01T10:53:36;95264.19;;;10.19;70.10
9525;BME280;15940;48.734;9.112;2023-04-01T10:56:32;95260.56;;;9.98;68.60
9525;BME280;15940;48.734;9.112;2023-04-01T10:59:53;95269.63;;;9.63;70.63
9525;BME280;15940;48.734;9.112;2023-04-01T11:06:43;95262.91;;;9.69;69.67
9525;BME280;15940;48.734;9.112;2023-04-01T11:16:24;95281.63;;;9.67;70.47
9525;BME280;15940;48.734;9.112;2023-04-01T11:22:59;95263.72;;;9.83;69.95
9525;BME280;15940;48.734;9.112;2023-04-01T11:25:55;95271.25;;;9.71;70.13
9525;BME280;15940;48.734;9.112;2023-04-01T11:29:19;95280.75;;;9.78;70.87
9525;BME280;15940;48.734;9.112;2023-04-01T11:32:02;95277.16;;;9.70;70.49
9525;BME280;15940;48.734;9.112;2023-04-01T11:34:52;95284.81;;;9.85;69.25
9525;BME280;15940;48.734;9.112;2023-04-01T11:37:36;95284.81;;;9.85;69.81
9525;BME280;15940;48.734;9.112;2023-04-01T11:40:17;95294.53;;;9.93;69.58
9525;BME280;15940;48.734;9.112;2023-04-01T11:42:55;95296.25;;;9.78;69.29
9525;BME280;15940;48.734;9.112;2023-04-01T11:45:36;95295.63;;;9.85;70.51
9525;BME280;15940;48.734;9.112;2023-04-01T11:48:15;95295.06;;;9.73;69.28
9525;BME280;15940;48.734;9.112;2023-04-01T11:51:09;95303.16;;;9.73;70.52
9525;BME280;15940;48.734;9.112;2023-04-01T11:53:47;95287.03;;;9.67;70.30
9525;BME280;15940;48.734;9.112;2023-04-01T11:56:38;95291.63;;;9.54;70.73
9525;BME280;15940;48.734;9.112;2023-04-01T11:59:42;95294.16;;;9.46;71.86
9525;BME280;15940;48.734;9.112;2023-04-01T12:02:22;95302.38;;;9.59;71.95
9525;BME280;15940;48.734;9.112;2023-04-01T12:05:22;95298.84;;;9.64;70.56
9525;BME280;15940;48.734;9.112;2023-04-01T12:08:04;95308.06;;;9.74;70.71
9525;BME280;15940;48.734;9.112;2023-04-01T12:10:40;95292.22;;;9.84;70.47
9525;BME280;15940;48.734;9.112;2023-04-01T12:13:24;95295.63;;;9.85;70.69
9525;BME280;15940;48.734;9.112;2023-04-01T12:16:22;95299.59;;;9.84;71.19
9525;BME280;15940;48.734;9.112;2023-04-01T12:18:55;95300.94;;;9.77;71.21
9525;BME280;15940;48.734;9.112;2023-04-01T12:21:28;95303.84;;;9.79;72.23
9525;BME280;15940;48.734;9.112;2023-04-01T12:24:26;95313.03;;;9.70;72.33
9525;BME280;15940;48.734;9.112;2023-04-01T12:27:14;95320.59;;;9.78;72.15
9525;BME280;15940;48.734;9.112;2023-04-01T12:30:21;95308.31;;;9.77;72.50
9525;BME280;15940;48.734;9.112;2023-04-01T12:33:10;95316.53;;;9.84;70.55
9525;BME280;15940;48.734;9.112;2023-04-01T12:35:55;95318.88;;;10.12;71.28
9525;BME280;15940;48.734;9.112;2023-04-01T12:38:34;95307.53;;;10.33;70.79
9525;BME280;15940;48.734;9.112;2023-04-01T12:41:11;95326.63;;;10.21;68.66
9525;BME280;15940;48.734;9.112;2023-04-01T12:47:32;95320.28;;;10.70;68.85
9525;BME280;15940;48.734;9.112;2023-04-01T12:50:28;95323.78;;;10.97;67.35
9525;BME280;15940;48.734;9.112;2023-04-01T12:53:23;95327.78;;;11.09;66.34
9525;BME280;15940;48.734;9.112;2023-04-01T12:55:52;95323.09;;;11.23;65.77
9525;BME280;15940;48.734;9.112;2023-04-01T12:58:56;95318.06;;;11.00;64.12
9525;BME280;15940;48.734;9.112;2023-04-01T13:01:46;95312.78;;;10.76;65.70
9525;BME280;15940;48.734;9.112;2023-04-01T13:07:51;95316.69;;;10.94;66.74
9525;BME280;15940;48.734;9.112;2023-04-01T13:10:39;95309.38;;;10.75;65.14
9525;BME280;15940;48.734;9.112;2023-04-01T13:16:07;95320.59;;;10.66;66.84
9525;BME280;15940;48.734;9.112;2023-04-01T13:18:52;95320.84;;;10.49;67.84
9525;BME280;15940;48.734;9.112;2023-04-01T13:21:37;95329.41;;;10.53;67.64
9525;BME280;15940;48.734;9.112;2023-04-01T13:24:20;95329.09;;;10.57;68.01
9525;BME280;15940;48.734;9.112;2023-04-01T13:26:57;95331.72;;;10.63;68.06
9525;BME280;15940;48.734;9.112;2023-04-01T13:29:33;95335.13;;;10.82;68.00
9525;BME280;15940;48.734;9.112;2023-04-01T13:32:16;95336.38;;;10.81;67.16
9525;BME280;15940;48.734;9.112;2023-04-01T13:35:05;95351.03;;;10.72;67.82
9525;BME280;15940;48.734;9.112;2023-04-01T13:38:05;95343.06;;;10.61;68.54
9525;BME280;15940;48.734;9.112;2023-04-01T13:40:44;95342.72;;;10.33;68.52
9525;BME280;15940;48.734;9.112;2023-04-01T13:43:19;95350.56;;;10.36;69.30
9525;BME280;15940;48.734;9.112;2023-04-01T13:46:13;95350.72;;;10.44;67.98
9525;BME280;15940;48.734;9.112;2023-04-01T13:49:22;95353.94;;;10.42;68.86
9525;BME280;15940;48.734;9.112;2023-04-01T13:52:24;95357.22;;;10.54;68.79
9525;BME280;15940;48.734;9.112;2023-04-01T13:58:08;95356.13;;;10.76;67.30
9525;BME280;15940;48.734;9.112;2023-04-01T14:00:54;95349.25;;;10.75;67.41
9525;BME280;15940;48.734;9.112;2023-04-01T14:03:32;95353.00;;;10.72;67.53
9525;BME280;15940;48.734;9.112;2023-04-01T14:06:19;95349.44;;;10.64;67.17
9525;BME280;15940;48.734;9.112;2023-04-01T14:09:19;95355.88;;;10.42;67.11
9525;BME280;15940;48.734;9.112;2023-04-01T14:12:01;95347.41;;;10.32;68.05
9525;BME280;15940;48.734;9.112;2023-04-01T14:14:46;95358.47;;;10.34;68.70
9525;BME280;15940;48.734;9.112;2023-04-01T14:17:36;95362.19;;;10.31;69.23
9525;BME280;15940;48.734;9.112;2023-04-01T14:20:36;95363.44;;;10.30;70.07
9525;BME280;15940;48.734;9.112;2023-04-01T14:23:35;95364.44;;;10.08;69.62
9525;BME280;15940;48.734;9.112;2023-04-01T14:26:35;95367.38;;;10.10;70.38
9525;BME280;15940;48.734;9.112;2023-04-01T14:29:21;95362.91;;;10.13;70.16
9525;BME280;15940;48.734;9.112;2023-04-01T14:32:10;95352.59;;;10.11;69.75
9525;BME280;15940;48.734;9.112;2023-04-01T14:34:52;95367.50;;;9.99;69.45
9525;BME280;15940;48.734;9.112;2023-04-01T14:37:55;95370.44;;;10.01;70.25
9525;BME280;15940;48.734;9.112;2023-04-01T14:40:28;95359.81;;;10.03;70.02
9525;BME280;15940;48.734;9.112;2023-04-01T14:43:47;95361.59;;;10.00;70.41
9525;BME280;15940;48.734;9.112;2023-04-01T14:47:06;95375.63;;;9.99;69.30
9525;BME280;15940;48.734;9.112;2023-04-01T14:49:37;95362.41;;;9.95;69.04
9525;BME280;15940;48.734;9.112;2023-04-01T14:52:13;95364.44;;;9.89;68.98
9525;BME280;15940;48.734;9.112;2023-04-01T14:54:44;95367.47;;;10.05;69.19
9525;BME280;15940;48.734;9.112;2023-04-01T14:57:16;95364.44;;;10.08;68.62
9525;BME280;15940;48.734;9.112;2023-04-01T14:59:53;95371.16;;;10.01;68.81
9525;BME280;15940;48.734;9.112;2023-04-01T15:02:41;95363.16;;;10.15;68.16
9525;BME280;15940;48.734;9.112;2023-04-01T15:05:22;95359.19;;;10.16;69.45
9525;BME280;15940;48.734;9.112;2023-04-01T15:08:06;95363.94;;;10.10;68.67
9525;BME280;15940;48.734;9.112;2023-04-01T15:11:19;95376.50;;;9.88;69.92
9525;BME280;15940;48.734;9.112;2023-04-01T15:14:06;95369.38;;;9.85;70.79
9525;BME280;15940;48.734;9.112;2023-04-01T15:16:44;95377.44;;;9.91;69.71
9525;BME280;15940;48.734;9.112;2023-04-01T15:19:25;95371.69;;;10.00;70.58
9525;BME280;15940;48.734;9.112;2023-04-01T15:22:16;95375.41;;;9.97;70.61
9525;BME280;15940;48.734;9.112;2023-04-01T15:24:52;95377.03;;;10.06;70.02
9525;BME280;15940;48.734;9.112;2023-04-01T15:27:35;95385.41;;;10.02;70.66